Hlavní strana
METAR-TAF:

METAR-TAF

Letiště :

Hohn, Německo

zeměpisná šířka: 54-19N, zeměpisná délka: 009-32E, výška: 12 m

Aktuální stav počasí

Zpráva byla vytvořena před 16 minutami, v 14:20 UTC
Západojihozápadní vítr 20 kt
Teplota 11°C
Vlhkost vzduchu 62%
Tlak 1017 hPa

METAR: ETNH 141420Z AUTO 25020KT //// // ////// 11/04 Q1017 ///

Čas: 16:36 (14:36 UTC)


TAF: chybějící

Stav a předpovědi počasí z více než 4 000 letišť (zprávy METAR a TAF).

Červené a žluté tečky na mapě představují dostupné meteorologické stanice.

Když kurzor umístíte na tečku, zobrazí se název stanice.

Pak kliknutím zobrazíte stav a předpověď počasí.

Chcete-li změnit mapu, kliknutím na zelené tlačítko se znaménkem +mapu přiblížíte, kliknutím na zelené tlačítko se znaménkem – mapu oddálíte a kliknutím na zelené šipky přejdete na sousední mapy.


METAR-TAF: